sensor_id;sensor_type;location;lat;lon;timestamp;temperature;humidity
78779;DHT22;68121;52.404;5.318;2023-05-20T00:00:28;12.90;61.30
78779;DHT22;68121;52.404;5.318;2023-05-20T00:02:54;12.90;61.40
78779;DHT22;68121;52.404;5.318;2023-05-20T00:05:20;12.80;61.50
78779;DHT22;68121;52.404;5.318;2023-05-20T00:07:46;12.80;61.60
78779;DHT22;68121;52.404;5.318;2023-05-20T00:10:12;12.80;61.70
78779;DHT22;68121;52.404;5.318;2023-05-20T00:12:38;12.70;61.80
78779;DHT22;68121;52.404;5.318;2023-05-20T00:15:05;12.70;61.90
78779;DHT22;68121;52.404;5.318;2023-05-20T00:17:31;12.70;62.00
78779;DHT22;68121;52.404;5.318;2023-05-20T00:19:57;12.70;62.00
78779;DHT22;68121;52.404;5.318;2023-05-20T00:22:25;12.60;62.10
78779;DHT22;68121;52.404;5.318;2023-05-20T00:24:51;12.70;62.20
78779;DHT22;68121;52.404;5.318;2023-05-20T00:27:17;12.60;62.30
78779;DHT22;68121;52.404;5.318;2023-05-20T00:29:43;12.60;62.30
78779;DHT22;68121;52.404;5.318;2023-05-20T00:32:09;12.50;62.40
78779;DHT22;68121;52.404;5.318;2023-05-20T00:34:35;12.50;62.50
78779;DHT22;68121;52.404;5.318;2023-05-20T00:37:01;12.50;62.50
78779;DHT22;68121;52.404;5.318;2023-05-20T00:39:27;12.50;62.60
78779;DHT22;68121;52.404;5.318;2023-05-20T00:41:55;12.50;62.60
78779;DHT22;68121;52.404;5.318;2023-05-20T00:44:25;12.50;62.70
78779;DHT22;68121;52.404;5.318;2023-05-20T00:46:52;12.50;62.70
78779;DHT22;68121;52.404;5.318;2023-05-20T00:49:18;12.50;62.80
78779;DHT22;68121;52.404;5.318;2023-05-20T00:51:45;12.50;62.80
78779;DHT22;68121;52.404;5.318;2023-05-20T00:54:12;12.50;62.90
78779;DHT22;68121;52.404;5.318;2023-05-20T00:56:38;12.50;62.90
78779;DHT22;68121;52.404;5.318;2023-05-20T00:59:04;12.40;63.00
78779;DHT22;68121;52.404;5.318;2023-05-20T01:01:31;12.40;63.20
78779;DHT22;68121;52.404;5.318;2023-05-20T01:03:58;12.40;63.20
78779;DHT22;68121;52.404;5.318;2023-05-20T01:06:24;12.40;63.20
78779;DHT22;68121;52.404;5.318;2023-05-20T01:08:50;12.30;63.20
78779;DHT22;68121;52.404;5.318;2023-05-20T01:11:30;12.30;63.20
78779;DHT22;68121;52.404;5.318;2023-05-20T01:14:02;12.30;63.30
78779;DHT22;68121;52.404;5.318;2023-05-20T01:16:29;12.30;63.30
78779;DHT22;68121;52.404;5.318;2023-05-20T01:18:58;12.20;63.40
78779;DHT22;68121;52.404;5.318;2023-05-20T01:21:29;12.20;63.40
78779;DHT22;68121;52.404;5.318;2023-05-20T01:23:55;12.20;63.50
78779;DHT22;68121;52.404;5.318;2023-05-20T01:26:21;12.20;63.50
78779;DHT22;68121;52.404;5.318;2023-05-20T01:28:52;12.20;63.50
78779;DHT22;68121;52.404;5.318;2023-05-20T01:31:25;12.20;63.50
78779;DHT22;68121;52.404;5.318;2023-05-20T01:33:55;12.10;63.60
78779;DHT22;68121;52.404;5.318;2023-05-20T01:36:23;12.10;63.60
78779;DHT22;68121;52.404;5.318;2023-05-20T01:38:52;12.10;63.70
78779;DHT22;68121;52.404;5.318;2023-05-20T01:41:20;12.10;63.80
78779;DHT22;68121;52.404;5.318;2023-05-20T01:43:46;12.10;63.80
78779;DHT22;68121;52.404;5.318;2023-05-20T01:46:14;12.10;63.80
78779;DHT22;68121;52.404;5.318;2023-05-20T01:48:40;12.00;63.90
78779;DHT22;68121;52.404;5.318;2023-05-20T01:51:06;12.00;63.90
78779;DHT22;68121;52.404;5.318;2023-05-20T01:53:32;12.00;63.90
78779;DHT22;68121;52.404;5.318;2023-05-20T01:55:58;12.00;64.00
78779;DHT22;68121;52.404;5.318;2023-05-20T01:58:24;11.90;64.10
78779;DHT22;68121;52.404;5.318;2023-05-20T02:00:50;11.90;64.10
78779;DHT22;68121;52.404;5.318;2023-05-20T02:03:16;11.90;64.20
78779;DHT22;68121;52.404;5.318;2023-05-20T02:05:43;11.90;64.20
78779;DHT22;68121;52.404;5.318;2023-05-20T02:08:09;11.90;64.30
78779;DHT22;68121;52.404;5.318;2023-05-20T02:10:35;11.90;64.40
78779;DHT22;68121;52.404;5.318;2023-05-20T02:13:01;11.90;64.40
78779;DHT22;68121;52.404;5.318;2023-05-20T02:15:27;11.90;64.50
78779;DHT22;68121;52.404;5.318;2023-05-20T02:17:53;11.90;64.50
78779;DHT22;68121;52.404;5.318;2023-05-20T02:20:19;11.80;64.60
78779;DHT22;68121;52.404;5.318;2023-05-20T02:22:45;11.80;64.60
78779;DHT22;68121;52.404;5.318;2023-05-20T02:25:11;11.80;64.60
78779;DHT22;68121;52.404;5.318;2023-05-20T02:27:37;11.80;64.70
78779;DHT22;68121;52.404;5.318;2023-05-20T02:30:06;11.70;64.70
78779;DHT22;68121;52.404;5.318;2023-05-20T02:32:33;11.80;64.70
78779;DHT22;68121;52.404;5.318;2023-05-20T02:34:59;11.80;64.70
78779;DHT22;68121;52.404;5.318;2023-05-20T02:37:25;11.80;64.70
78779;DHT22;68121;52.404;5.318;2023-05-20T02:39:51;11.70;64.70
78779;DHT22;68121;52.404;5.318;2023-05-20T02:42:17;11.70;64.80
78779;DHT22;68121;52.404;5.318;2023-05-20T02:44:44;11.70;64.80
78779;DHT22;68121;52.404;5.318;2023-05-20T02:47:10;11.70;64.90
78779;DHT22;68121;52.404;5.318;2023-05-20T02:49:36;11.70;64.80
78779;DHT22;68121;52.404;5.318;2023-05-20T02:52:02;11.70;64.90
78779;DHT22;68121;52.404;5.318;2023-05-20T02:54:29;11.70;65.00
78779;DHT22;68121;52.404;5.318;2023-05-20T02:56:55;11.60;65.00
78779;DHT22;68121;52.404;5.318;2023-05-20T02:59:21;11.70;65.00
78779;DHT22;68121;52.404;5.318;2023-05-20T03:01:47;11.60;65.00
78779;DHT22;68121;52.404;5.318;2023-05-20T03:04:13;11.50;65.00
78779;DHT22;68121;52.404;5.318;2023-05-20T03:06:39;11.50;65.10
78779;DHT22;68121;52.404;5.318;2023-05-20T03:09:09;11.50;65.10
78779;DHT22;68121;52.404;5.318;2023-05-20T03:11:35;11.50;65.20
78779;DHT22;68121;52.404;5.318;2023-05-20T03:14:01;11.50;65.20
78779;DHT22;68121;52.404;5.318;2023-05-20T03:16:27;11.50;65.30
78779;DHT22;68121;52.404;5.318;2023-05-20T03:18:53;11.50;65.30
78779;DHT22;68121;52.404;5.318;2023-05-20T03:21:19;11.50;65.30
78779;DHT22;68121;52.404;5.318;2023-05-20T03:23:48;11.50;65.40
78779;DHT22;68121;52.404;5.318;2023-05-20T03:26:14;11.50;65.40
78779;DHT22;68121;52.404;5.318;2023-05-20T03:28:40;11.50;65.40
78779;DHT22;68121;52.404;5.318;2023-05-20T03:31:06;11.50;65.50
78779;DHT22;68121;52.404;5.318;2023-05-20T03:33:34;11.50;65.50
78779;DHT22;68121;52.404;5.318;2023-05-20T03:36:00;11.50;65.60
78779;DHT22;68121;52.404;5.318;2023-05-20T03:38:26;11.50;65.60
78779;DHT22;68121;52.404;5.318;2023-05-20T03:40:52;11.50;65.60
78779;DHT22;68121;52.404;5.318;2023-05-20T03:43:18;11.50;65.60
78779;DHT22;68121;52.404;5.318;2023-05-20T03:45:44;11.50;65.60
78779;DHT22;68121;52.404;5.318;2023-05-20T03:48:10;11.50;65.60
78779;DHT22;68121;52.404;5.318;2023-05-20T03:50:36;11.50;65.60
78779;DHT22;68121;52.404;5.318;2023-05-20T03:53:02;11.50;65.60
78779;DHT22;68121;52.404;5.318;2023-05-20T03:55:28;11.50;65.60
78779;DHT22;68121;52.404;5.318;2023-05-20T03:57:54;11.50;65.60
78779;DHT22;68121;52.404;5.318;2023-05-20T04:00:20;11.50;65.60
78779;DHT22;68121;52.404;5.318;2023-05-20T04:02:47;11.50;65.60
78779;DHT22;68121;52.404;5.318;2023-05-20T04:05:13;11.50;65.60
78779;DHT22;68121;52.404;5.318;2023-05-20T04:07:39;11.50;65.60
78779;DHT22;68121;52.404;5.318;2023-05-20T04:10:06;11.50;65.60
78779;DHT22;68121;52.404;5.318;2023-05-20T04:12:32;11.50;65.60
78779;DHT22;68121;52.404;5.318;2023-05-20T04:15:00;11.50;65.70
78779;DHT22;68121;52.404;5.318;2023-05-20T04:17:30;11.50;65.60
78779;DHT22;68121;52.404;5.318;2023-05-20T04:19:56;11.40;65.80
78779;DHT22;68121;52.404;5.318;2023-05-20T04:22:25;11.40;65.80
78779;DHT22;68121;52.404;5.318;2023-05-20T04:24:51;11.40;65.80
78779;DHT22;68121;52.404;5.318;2023-05-20T04:27:17;11.30;65.80
78779;DHT22;68121;52.404;5.318;2023-05-20T04:29:45;11.30;65.80
78779;DHT22;68121;52.404;5.318;2023-05-20T04:32:13;11.30;65.90
78779;DHT22;68121;52.404;5.318;2023-05-20T04:34:39;11.30;65.90
78779;DHT22;68121;52.404;5.318;2023-05-20T04:37:05;11.30;65.90
78779;DHT22;68121;52.404;5.318;2023-05-20T04:39:34;11.30;65.90
78779;DHT22;68121;52.404;5.318;2023-05-20T04:42:02;11.30;65.90
78779;DHT22;68121;52.404;5.318;2023-05-20T04:44:28;11.30;66.00
78779;DHT22;68121;52.404;5.318;2023-05-20T04:46:55;11.40;66.00
78779;DHT22;68121;52.404;5.318;2023-05-20T04:49:23;11.40;65.90
78779;DHT22;68121;52.404;5.318;2023-05-20T04:51:52;11.50;66.00
78779;DHT22;68121;52.404;5.318;2023-05-20T04:54:20;11.50;65.90
78779;DHT22;68121;52.404;5.318;2023-05-20T04:56:46;11.50;66.00
78779;DHT22;68121;52.404;5.318;2023-05-20T04:59:12;11.50;66.00
78779;DHT22;68121;52.404;5.318;2023-05-20T05:01:38;11.60;66.00
78779;DHT22;68121;52.404;5.318;2023-05-20T05:04:04;11.60;66.10
78779;DHT22;68121;52.404;5.318;2023-05-20T05:06:30;11.70;66.00
78779;DHT22;68121;52.404;5.318;2023-05-20T05:08:56;11.70;66.00
78779;DHT22;68121;52.404;5.318;2023-05-20T05:11:22;11.70;66.10
78779;DHT22;68121;52.404;5.318;2023-05-20T05:13:48;11.70;66.10
78779;DHT22;68121;52.404;5.318;2023-05-20T05:16:15;11.80;66.10
78779;DHT22;68121;52.404;5.318;2023-05-20T05:18:41;11.90;66.10
78779;DHT22;68121;52.404;5.318;2023-05-20T05:21:07;11.90;66.10
78779;DHT22;68121;52.404;5.318;2023-05-20T05:23:33;11.90;66.10
78779;DHT22;68121;52.404;5.318;2023-05-20T05:25:59;11.90;66.10
78779;DHT22;68121;52.404;5.318;2023-05-20T05:28:25;12.00;66.10
78779;DHT22;68121;52.404;5.318;2023-05-20T05:30:54;12.00;66.10
78779;DHT22;68121;52.404;5.318;2023-05-20T05:33:23;12.10;66.20
78779;DHT22;68121;52.404;5.318;2023-05-20T05:35:50;12.10;66.10
78779;DHT22;68121;52.404;5.318;2023-05-20T05:38:16;12.20;66.10
78779;DHT22;68121;52.404;5.318;2023-05-20T05:40:42;12.30;66.10
78779;DHT22;68121;52.404;5.318;2023-05-20T05:43:08;12.50;66.00
78779;DHT22;68121;52.404;5.318;2023-05-20T05:45:34;12.60;65.90
78779;DHT22;68121;52.404;5.318;2023-05-20T05:48:00;12.80;65.70
78779;DHT22;68121;52.404;5.318;2023-05-20T05:50:26;12.80;65.50
78779;DHT22;68121;52.404;5.318;2023-05-20T05:52:52;12.90;65.50
78779;DHT22;68121;52.404;5.318;2023-05-20T05:55:18;13.00;65.50
78779;DHT22;68121;52.404;5.318;2023-05-20T05:57:44;13.10;65.40
78779;DHT22;68121;52.404;5.318;2023-05-20T06:00:11;13.10;65.40
78779;DHT22;68121;52.404;5.318;2023-05-20T06:02:37;13.30;65.30
78779;DHT22;68121;52.404;5.318;2023-05-20T06:05:03;13.30;65.10
78779;DHT22;68121;52.404;5.318;2023-05-20T06:07:29;13.30;65.00
78779;DHT22;68121;52.404;5.318;2023-05-20T06:09:56;13.50;64.90
78779;DHT22;68121;52.404;5.318;2023-05-20T06:12:22;13.50;64.80
78779;DHT22;68121;52.404;5.318;2023-05-20T06:14:48;13.60;64.60
78779;DHT22;68121;52.404;5.318;2023-05-20T06:17:14;13.70;64.50
78779;DHT22;68121;52.404;5.318;2023-05-20T06:19:40;13.70;64.30
78779;DHT22;68121;52.404;5.318;2023-05-20T06:22:06;13.70;64.30
78779;DHT22;68121;52.404;5.318;2023-05-20T06:24:33;13.90;64.30
78779;DHT22;68121;52.404;5.318;2023-05-20T06:26:59;13.90;64.20
78779;DHT22;68121;52.404;5.318;2023-05-20T06:29:25;14.00;64.00
78779;DHT22;68121;52.404;5.318;2023-05-20T06:31:51;14.20;63.80
78779;DHT22;68121;52.404;5.318;2023-05-20T06:34:17;14.30;63.60
78779;DHT22;68121;52.404;5.318;2023-05-20T06:36:43;14.40;63.40
78779;DHT22;68121;52.404;5.318;2023-05-20T06:39:09;14.50;63.30
78779;DHT22;68121;52.404;5.318;2023-05-20T06:41:38;14.70;63.20
78779;DHT22;68121;52.404;5.318;2023-05-20T06:44:05;14.80;62.90
78779;DHT22;68121;52.404;5.318;2023-05-20T06:46:33;14.90;62.70
78779;DHT22;68121;52.404;5.318;2023-05-20T06:48:59;14.90;62.40
78779;DHT22;68121;52.404;5.318;2023-05-20T06:51:26;15.00;62.30
78779;DHT22;68121;52.404;5.318;2023-05-20T06:53:53;15.00;62.20
78779;DHT22;68121;52.404;5.318;2023-05-20T06:56:19;15.20;62.10
78779;DHT22;68121;52.404;5.318;2023-05-20T06:58:46;15.20;61.90
78779;DHT22;68121;52.404;5.318;2023-05-20T07:01:12;15.30;61.80
78779;DHT22;68121;52.404;5.318;2023-05-20T07:03:38;15.40;61.60
78779;DHT22;68121;52.404;5.318;2023-05-20T07:06:04;15.50;61.40
78779;DHT22;68121;52.404;5.318;2023-05-20T07:08:30;15.60;61.40
78779;DHT22;68121;52.404;5.318;2023-05-20T07:10:56;15.60;61.30
78779;DHT22;68121;52.404;5.318;2023-05-20T07:13:23;15.80;61.00
78779;DHT22;68121;52.404;5.318;2023-05-20T07:15:49;15.90;60.70
78779;DHT22;68121;52.404;5.318;2023-05-20T07:18:15;16.00;60.70
78779;DHT22;68121;52.404;5.318;2023-05-20T07:20:41;16.00;60.50
78779;DHT22;68121;52.404;5.318;2023-05-20T07:23:07;16.10;60.40
78779;DHT22;68121;52.404;5.318;2023-05-20T07:25:33;16.20;60.10
78779;DHT22;68121;52.404;5.318;2023-05-20T07:27:59;16.40;60.00
78779;DHT22;68121;52.404;5.318;2023-05-20T07:30:25;16.50;59.70
78779;DHT22;68121;52.404;5.318;2023-05-20T07:32:52;16.60;59.50
78779;DHT22;68121;52.404;5.318;2023-05-20T07:35:18;16.80;59.50
78779;DHT22;68121;52.404;5.318;2023-05-20T07:37:44;16.90;59.40
78779;DHT22;68121;52.404;5.318;2023-05-20T07:40:10;17.00;59.30
78779;DHT22;68121;52.404;5.318;2023-05-20T07:42:36;17.20;59.00
78779;DHT22;68121;52.404;5.318;2023-05-20T07:45:03;17.40;58.80
78779;DHT22;68121;52.404;5.318;2023-05-20T07:47:30;17.50;58.60
78779;DHT22;68121;52.404;5.318;2023-05-20T07:49:57;17.60;58.30
78779;DHT22;68121;52.404;5.318;2023-05-20T07:52:23;17.70;58.10
78779;DHT22;68121;52.404;5.318;2023-05-20T07:54:50;17.80;58.00
78779;DHT22;68121;52.404;5.318;2023-05-20T07:57:16;17.90;57.70
78779;DHT22;68121;52.404;5.318;2023-05-20T07:59:42;18.00;57.50
78779;DHT22;68121;52.404;5.318;2023-05-20T08:02:08;18.00;57.30
78779;DHT22;68121;52.404;5.318;2023-05-20T08:04:34;18.00;57.10
78779;DHT22;68121;52.404;5.318;2023-05-20T08:07:00;18.10;56.90
78779;DHT22;68121;52.404;5.318;2023-05-20T08:09:26;18.10;56.70
78779;DHT22;68121;52.404;5.318;2023-05-20T08:11:52;18.10;56.60
78779;DHT22;68121;52.404;5.318;2023-05-20T08:14:18;18.10;56.30
78779;DHT22;68121;52.404;5.318;2023-05-20T08:16:44;18.20;56.30
78779;DHT22;68121;52.404;5.318;2023-05-20T08:19:10;18.30;56.20
78779;DHT22;68121;52.404;5.318;2023-05-20T08:21:37;18.40;56.00
78779;DHT22;68121;52.404;5.318;2023-05-20T08:24:03;18.50;56.10
78779;DHT22;68121;52.404;5.318;2023-05-20T08:26:29;18.60;55.80
78779;DHT22;68121;52.404;5.318;2023-05-20T08:28:55;18.70;55.60
78779;DHT22;68121;52.404;5.318;2023-05-20T08:31:21;18.80;55.40
78779;DHT22;68121;52.404;5.318;2023-05-20T08:33:47;19.00;55.10
78779;DHT22;68121;52.404;5.318;2023-05-20T08:36:14;19.10;54.70
78779;DHT22;68121;52.404;5.318;2023-05-20T08:38:40;19.10;54.50
78779;DHT22;68121;52.404;5.318;2023-05-20T08:41:06;19.10;54.40
78779;DHT22;68121;52.404;5.318;2023-05-20T08:43:32;19.20;54.30
78779;DHT22;68121;52.404;5.318;2023-05-20T08:45:58;19.30;54.10
78779;DHT22;68121;52.404;5.318;2023-05-20T08:48:25;19.40;53.70
78779;DHT22;68121;52.404;5.318;2023-05-20T08:50:54;19.40;53.40
78779;DHT22;68121;52.404;5.318;2023-05-20T08:53:22;19.40;53.30
78779;DHT22;68121;52.404;5.318;2023-05-20T08:55:54;19.50;53.30
78779;DHT22;68121;52.404;5.318;2023-05-20T08:58:23;19.60;53.20
78779;DHT22;68121;52.404;5.318;2023-05-20T09:00:50;19.80;53.20
78779;DHT22;68121;52.404;5.318;2023-05-20T09:03:18;20.00;52.60
78779;DHT22;68121;52.404;5.318;2023-05-20T09:05:46;20.00;52.50
78779;DHT22;68121;52.404;5.318;2023-05-20T09:08:12;20.10;52.50
78779;DHT22;68121;52.404;5.318;2023-05-20T09:10:39;20.10;52.30
78779;DHT22;68121;52.404;5.318;2023-05-20T09:13:07;20.20;52.30
78779;DHT22;68121;52.404;5.318;2023-05-20T09:15:34;20.30;51.70
78779;DHT22;68121;52.404;5.318;2023-05-20T09:18:02;20.20;51.40
78779;DHT22;68121;52.404;5.318;2023-05-20T09:20:28;20.20;51.20
78779;DHT22;68121;52.404;5.318;2023-05-20T09:23:02;20.30;51.10
78779;DHT22;68121;52.404;5.318;2023-05-20T09:25:29;20.30;51.30
78779;DHT22;68121;52.404;5.318;2023-05-20T09:27:55;20.50;51.10
78779;DHT22;68121;52.404;5.318;2023-05-20T09:30:21;20.50;50.70
78779;DHT22;68121;52.404;5.318;2023-05-20T09:35:23;20.50;50.50
78779;DHT22;68121;52.404;5.318;2023-05-20T09:37:54;20.70;50.40
78779;DHT22;68121;52.404;5.318;2023-05-20T09:40:28;20.70;49.90
78779;DHT22;68121;52.404;5.318;2023-05-20T09:43:07;20.80;49.70
78779;DHT22;68121;52.404;5.318;2023-05-20T09:45:33;20.80;49.50
78779;DHT22;68121;52.404;5.318;2023-05-20T09:48:00;20.80;49.70
78779;DHT22;68121;52.404;5.318;2023-05-20T09:50:27;20.90;49.40
78779;DHT22;68121;52.404;5.318;2023-05-20T09:52:54;20.80;49.30
78779;DHT22;68121;52.404;5.318;2023-05-20T09:55:22;20.70;49.40
78779;DHT22;68121;52.404;5.318;2023-05-20T09:57:49;20.60;49.50
78779;DHT22;68121;52.404;5.318;2023-05-20T10:00:15;20.60;49.60
78779;DHT22;68121;52.404;5.318;2023-05-20T10:02:50;20.60;49.50
78779;DHT22;68121;52.404;5.318;2023-05-20T10:05:26;20.50;49.10
78779;DHT22;68121;52.404;5.318;2023-05-20T10:16:47;20.50;48.90
78779;DHT22;68121;52.404;5.318;2023-05-20T10:19:31;20.70;49.00
78779;DHT22;68121;52.404;5.318;2023-05-20T10:22:00;20.80;48.50
78779;DHT22;68121;52.404;5.318;2023-05-20T10:27:06;20.70;48.20
78779;DHT22;68121;52.404;5.318;2023-05-20T10:29:55;20.50;48.50
78779;DHT22;68121;52.404;5.318;2023-05-20T10:32:31;20.50;48.60
78779;DHT22;68121;52.404;5.318;2023-05-20T10:35:07;20.30;48.90
78779;DHT22;68121;52.404;5.318;2023-05-20T10:37:43;20.20;48.90
78779;DHT22;68121;52.404;5.318;2023-05-20T10:40:12;20.10;48.90
78779;DHT22;68121;52.404;5.318;2023-05-20T10:42:39;20.10;48.90
78779;DHT22;68121;52.404;5.318;2023-05-20T10:45:08;20.10;48.90
78779;DHT22;68121;52.404;5.318;2023-05-20T10:47:35;20.10;49.00
78779;DHT22;68121;52.404;5.318;2023-05-20T10:50:01;20.30;49.10
78779;DHT22;68121;52.404;5.318;2023-05-20T10:52:35;20.30;48.90
78779;DHT22;68121;52.404;5.318;2023-05-20T10:55:02;20.40;48.70
78779;DHT22;68121;52.404;5.318;2023-05-20T10:57:30;20.50;48.60
78779;DHT22;68121;52.404;5.318;2023-05-20T10:59:57;20.60;48.70
78779;DHT22;68121;52.404;5.318;2023-05-20T11:02:24;20.70;48.70
78779;DHT22;68121;52.404;5.318;2023-05-20T11:04:55;20.80;48.40
78779;DHT22;68121;52.404;5.318;2023-05-20T11:07:28;20.80;48.30
78779;DHT22;68121;52.404;5.318;2023-05-20T11:09:57;20.80;48.00
78779;DHT22;68121;52.404;5.318;2023-05-20T11:12:24;20.80;48.00
78779;DHT22;68121;52.404;5.318;2023-05-20T11:14:51;20.90;48.00
78779;DHT22;68121;52.404;5.318;2023-05-20T11:17:18;21.10;47.80
78779;DHT22;68121;52.404;5.318;2023-05-20T11:19:45;21.30;47.30
78779;DHT22;68121;52.404;5.318;2023-05-20T11:22:11;21.50;46.80
78779;DHT22;68121;52.404;5.318;2023-05-20T11:24:37;21.50;46.60
78779;DHT22;68121;52.404;5.318;2023-05-20T11:27:04;21.60;46.70
78779;DHT22;68121;52.404;5.318;2023-05-20T11:29:30;21.70;46.60
78779;DHT22;68121;52.404;5.318;2023-05-20T11:31:59;21.90;46.60
78779;DHT22;68121;52.404;5.318;2023-05-20T11:34:33;22.00;46.50
78779;DHT22;68121;52.404;5.318;2023-05-20T11:36:59;22.10;46.40
78779;DHT22;68121;52.404;5.318;2023-05-20T11:39:29;22.10;46.40
78779;DHT22;68121;52.404;5.318;2023-05-20T11:41:56;22.20;46.40
78779;DHT22;68121;52.404;5.318;2023-05-20T11:44:22;22.20;46.10
78779;DHT22;68121;52.404;5.318;2023-05-20T11:46:49;22.20;46.20
78779;DHT22;68121;52.404;5.318;2023-05-20T11:49:15;22.10;46.10
78779;DHT22;68121;52.404;5.318;2023-05-20T11:51:42;22.00;46.10
78779;DHT22;68121;52.404;5.318;2023-05-20T11:54:09;21.90;46.30
78779;DHT22;68121;52.404;5.318;2023-05-20T11:56:36;21.60;46.40
78779;DHT22;68121;52.404;5.318;2023-05-20T11:59:04;21.40;46.50
78779;DHT22;68121;52.404;5.318;2023-05-20T12:01:32;21.30;46.60
78779;DHT22;68121;52.404;5.318;2023-05-20T12:04:11;21.30;46.60
78779;DHT22;68121;52.404;5.318;2023-05-20T12:06:40;21.40;46.80
78779;DHT22;68121;52.404;5.318;2023-05-20T12:09:09;21.70;46.90
78779;DHT22;68121;52.404;5.318;2023-05-20T12:11:36;21.90;46.90
78779;DHT22;68121;52.404;5.318;2023-05-20T12:14:05;22.20;46.60
78779;DHT22;68121;52.404;5.318;2023-05-20T12:16:33;22.50;46.30
78779;DHT22;68121;52.404;5.318;2023-05-20T12:18:59;22.50;46.10
78779;DHT22;68121;52.404;5.318;2023-05-20T12:21:25;22.50;45.90
78779;DHT22;68121;52.404;5.318;2023-05-20T12:23:51;22.30;46.10
78779;DHT22;68121;52.404;5.318;2023-05-20T12:26:26;22.40;46.30
78779;DHT22;68121;52.404;5.318;2023-05-20T12:28:53;22.50;46.10
78779;DHT22;68121;52.404;5.318;2023-05-20T12:31:19;22.50;46.10
78779;DHT22;68121;52.404;5.318;2023-05-20T12:33:45;22.50;46.10
78779;DHT22;68121;52.404;5.318;2023-05-20T12:36:13;22.40;46.20
78779;DHT22;68121;52.404;5.318;2023-05-20T12:38:39;22.10;46.30
78779;DHT22;68121;52.404;5.318;2023-05-20T12:41:05;22.00;46.40
78779;DHT22;68121;52.404;5.318;2023-05-20T12:43:31;22.10;46.50
78779;DHT22;68121;52.404;5.318;2023-05-20T12:45:57;22.20;46.50
78779;DHT22;68121;52.404;5.318;2023-05-20T12:48:23;22.20;46.40
78779;DHT22;68121;52.404;5.318;2023-05-20T12:50:49;22.20;46.20
78779;DHT22;68121;52.404;5.318;2023-05-20T12:53:15;22.20;46.20
78779;DHT22;68121;52.404;5.318;2023-05-20T12:55:41;22.00;46.10
78779;DHT22;68121;52.404;5.318;2023-05-20T12:58:08;21.90;46.40
78779;DHT22;68121;52.404;5.318;2023-05-20T13:00:34;21.70;46.60
78779;DHT22;68121;52.404;5.318;2023-05-20T13:03:00;21.60;46.90
78779;DHT22;68121;52.404;5.318;2023-05-20T13:05:26;21.50;47.10
78779;DHT22;68121;52.404;5.318;2023-05-20T13:07:52;21.70;47.10
78779;DHT22;68121;52.404;5.318;2023-05-20T13:10:19;21.80;47.00
78779;DHT22;68121;52.404;5.318;2023-05-20T13:12:45;21.90;46.90
78779;DHT22;68121;52.404;5.318;2023-05-20T13:15:11;22.00;46.90
78779;DHT22;68121;52.404;5.318;2023-05-20T13:17:40;22.20;46.90
78779;DHT22;68121;52.404;5.318;2023-05-20T13:20:07;22.40;46.50
78779;DHT22;68121;52.404;5.318;2023-05-20T13:22:34;22.40;46.10
78779;DHT22;68121;52.404;5.318;2023-05-20T13:25:00;22.30;46.10
78779;DHT22;68121;52.404;5.318;2023-05-20T13:27:26;22.50;46.10
78779;DHT22;68121;52.404;5.318;2023-05-20T13:29:52;22.50;46.20
78779;DHT22;68121;52.404;5.318;2023-05-20T13:32:18;22.50;46.20
78779;DHT22;68121;52.404;5.318;2023-05-20T13:34:44;22.50;46.10
78779;DHT22;68121;52.404;5.318;2023-05-20T13:37:10;22.60;45.70
78779;DHT22;68121;52.404;5.318;2023-05-20T13:39:37;22.70;45.50
78779;DHT22;68121;52.404;5.318;2023-05-20T13:42:03;22.50;45.60
78779;DHT22;68121;52.404;5.318;2023-05-20T13:44:29;22.40;45.80
78779;DHT22;68121;52.404;5.318;2023-05-20T13:46:55;22.30;46.00
78779;DHT22;68121;52.404;5.318;2023-05-20T13:49:21;22.20;46.10
78779;DHT22;68121;52.404;5.318;2023-05-20T13:51:47;22.00;46.20
78779;DHT22;68121;52.404;5.318;2023-05-20T13:54:13;22.00;46.30
78779;DHT22;68121;52.404;5.318;2023-05-20T13:56:39;22.10;46.20
78779;DHT22;68121;52.404;5.318;2023-05-20T13:59:05;22.10;46.20
78779;DHT22;68121;52.404;5.318;2023-05-20T14:01:31;22.10;46.20
78779;DHT22;68121;52.404;5.318;2023-05-20T14:03:58;22.10;46.50
78779;DHT22;68121;52.404;5.318;2023-05-20T14:06:25;22.20;46.70
78779;DHT22;68121;52.404;5.318;2023-05-20T14:08:53;22.20;46.40
78779;DHT22;68121;52.404;5.318;2023-05-20T14:11:19;22.10;46.20
78779;DHT22;68121;52.404;5.318;2023-05-20T14:13:46;22.10;46.10
78779;DHT22;68121;52.404;5.318;2023-05-20T14:16:12;22.10;46.10
78779;DHT22;68121;52.404;5.318;2023-05-20T14:18:38;22.20;46.20
78779;DHT22;68121;52.404;5.318;2023-05-20T14:21:04;22.20;46.20
78779;DHT22;68121;52.404;5.318;2023-05-20T14:23:30;22.20;46.20
78779;DHT22;68121;52.404;5.318;2023-05-20T14:25:56;22.30;46.40
78779;DHT22;68121;52.404;5.318;2023-05-20T14:28:22;22.40;46.20
78779;DHT22;68121;52.404;5.318;2023-05-20T14:30:48;22.50;46.10
78779;DHT22;68121;52.404;5.318;2023-05-20T14:33:14;22.60;46.10
78779;DHT22;68121;52.404;5.318;2023-05-20T14:35:41;22.60;46.00
78779;DHT22;68121;52.404;5.318;2023-05-20T14:38:07;22.50;46.10
78779;DHT22;68121;52.404;5.318;2023-05-20T14:40:33;22.50;46.10
78779;DHT22;68121;52.404;5.318;2023-05-20T14:42:59;22.40;45.90
78779;DHT22;68121;52.404;5.318;2023-05-20T14:45:25;22.30;45.90
78779;DHT22;68121;52.404;5.318;2023-05-20T14:47:51;22.20;46.00
78779;DHT22;68121;52.404;5.318;2023-05-20T14:50:17;22.10;46.00
78779;DHT22;68121;52.404;5.318;2023-05-20T14:52:43;22.10;46.10
78779;DHT22;68121;52.404;5.318;2023-05-20T14:55:09;22.00;46.20
78779;DHT22;68121;52.404;5.318;2023-05-20T14:57:35;21.90;46.50
78779;DHT22;68121;52.404;5.318;2023-05-20T15:00:01;21.90;46.60
78779;DHT22;68121;52.404;5.318;2023-05-20T15:02:27;21.80;46.60
78779;DHT22;68121;52.404;5.318;2023-05-20T15:04:53;21.70;46.50
78779;DHT22;68121;52.404;5.318;2023-05-20T15:07:19;21.60;46.50
78779;DHT22;68121;52.404;5.318;2023-05-20T15:09:46;21.60;46.60
78779;DHT22;68121;52.404;5.318;2023-05-20T15:12:12;21.60;46.70
78779;DHT22;68121;52.404;5.318;2023-05-20T15:14:38;21.60;46.80
78779;DHT22;68121;52.404;5.318;2023-05-20T15:17:04;21.60;46.90
78779;DHT22;68121;52.404;5.318;2023-05-20T15:19:30;21.60;47.00
78779;DHT22;68121;52.404;5.318;2023-05-20T15:21:57;21.60;47.00
78779;DHT22;68121;52.404;5.318;2023-05-20T15:24:23;21.60;47.00
78779;DHT22;68121;52.404;5.318;2023-05-20T15:26:50;21.60;47.00
78779;DHT22;68121;52.404;5.318;2023-05-20T15:29:16;21.60;47.10
78779;DHT22;68121;52.404;5.318;2023-05-20T15:31:43;21.50;47.20
78779;DHT22;68121;52.404;5.318;2023-05-20T15:34:09;21.50;47.30
78779;DHT22;68121;52.404;5.318;2023-05-20T15:36:35;21.40;47.30
78779;DHT22;68121;52.404;5.318;2023-05-20T15:39:01;21.40;47.30
78779;DHT22;68121;52.404;5.318;2023-05-20T15:41:27;21.40;47.40